British Ensign — MMER9 — position and weather

sailwx.info

Track history (hours):
 
Tides and Currents Weather Stations Pressure Air Temp Water Temp Dewpoint Dewpoint Depression Visibility Wind Speed Wind Dir Waves Ship Positions

British Ensign

Last reported at 2015-Mar-28 05:33 UTC. Time now 2015-Mar-28 16:06 UTC.
Position N 52°25' E 004°47'.

Length 184.2 m; beam 27.4 m; draft 11.3 m.

Type: Ship. MMSI: 235010980.

Date/timePositionNaut miles runAvg speedWind from/ knotsBaromVisibWave heightAir tempDewpointWater temp
2015-Mar-28 05:33N 52°25' E 004°47'4 3.8
2015-Mar-28 04:33N 52°27' E 004°42'3 3.5
2015-Mar-28 03:34N 52°28' E 004°36'4 4.0
2015-Mar-28 02:33N 52°28' E 004°30'8 7.8
2015-Mar-28 01:33N 52°31' E 004°18'0 0.3
2015-Mar-28 00:33N 52°31' E 004°18'0 0.1
2015-Mar-27 23:33N 52°31' E 004°18'0 0.0
2015-Mar-27 22:33N 52°31' E 004°18'0 0.0
2015-Mar-27 21:33N 52°31' E 004°18'0 0.0
2015-Mar-27 20:33N 52°31' E 004°18'0 0.1
2015-Mar-27 19:33N 52°31' E 004°18'0 0.1
2015-Mar-27 18:33N 52°31' E 004°18'0 0.1
2015-Mar-27 17:33N 52°31' E 004°18'0 0.1
2015-Mar-27 16:33N 52°31' E 004°18'0 0.0
2015-Mar-27 15:33N 52°31' E 004°18'0 0.0
2015-Mar-27 14:33N 52°31' E 004°18'3 2.6
2015-Mar-27 13:34N 52°29' E 004°20'10 9.6
2015-Mar-27 12:33N 52°28' E 004°04'1312.8
2015-Mar-27 11:34N 52°25' E 003°44'6913.8
2015-Mar-27 06:32N 51°36' E 002°24'1514.9
2015-Mar-27 05:34N 51°25' E 002°09'1413.5
2015-Mar-27 04:33N 51°13' E 001°60'1515.3
2015-Mar-27 03:33N 51°03' E 001°41'4814.0
2015-Mar-27 00:07N 50°27' E 000°49'1414.6
2015-Mar-26 23:07N 50°23' E 000°27'  
Track history (hours):
 
Tides and Currents Weather Stations Pressure Air Temp Water Temp Dewpoint Dewpoint Depression Visibility Wind Speed Wind Dir Waves Ship Positions

British Ensign

Last reported at 2015-Mar-28 05:33 UTC. Time now 2015-Mar-28 16:06 UTC.
Position N 52°25' E 004°47'.

Length 184.2 m; beam 27.4 m; draft 11.3 m.

Type: Ship. MMSI: 235010980.

Date/timePositionNaut miles runAvg speedWind from/ knotsBaromVisibWave heightAir tempDewpointWater temp
2015-Mar-28 05:33N 52°25' E 004°47'4 3.8
2015-Mar-28 04:33N 52°27' E 004°42'3 3.5
2015-Mar-28 03:34N 52°28' E 004°36'4 4.0
2015-Mar-28 02:33N 52°28' E 004°30'8 7.8
2015-Mar-28 01:33N 52°31' E 004°18'0 0.3
2015-Mar-28 00:33N 52°31' E 004°18'0 0.1
2015-Mar-27 23:33N 52°31' E 004°18'0 0.0
2015-Mar-27 22:33N 52°31' E 004°18'0 0.0
2015-Mar-27 21:33N 52°31' E 004°18'0 0.0
2015-Mar-27 20:33N 52°31' E 004°18'0 0.1
2015-Mar-27 19:33N 52°31' E 004°18'0 0.1
2015-Mar-27 18:33N 52°31' E 004°18'0 0.1
2015-Mar-27 17:33N 52°31' E 004°18'0 0.1
2015-Mar-27 16:33N 52°31' E 004°18'0 0.0
2015-Mar-27 15:33N 52°31' E 004°18'0 0.0
2015-Mar-27 14:33N 52°31' E 004°18'3 2.6
2015-Mar-27 13:34N 52°29' E 004°20'10 9.6
2015-Mar-27 12:33N 52°28' E 004°04'1312.8
2015-Mar-27 11:34N 52°25' E 003°44'6913.8
2015-Mar-27 06:32N 51°36' E 002°24'1514.9
2015-Mar-27 05:34N 51°25' E 002°09'1413.5
2015-Mar-27 04:33N 51°13' E 001°60'1515.3
2015-Mar-27 03:33N 51°03' E 001°41'4814.0
2015-Mar-27 00:07N 50°27' E 000°49'1414.6
2015-Mar-26 23:07N 50°23' E 000°27'  

Dump ship's entire track history